sensor_id;sensor_type;location;lat;lon;timestamp;P1;durP1;ratioP1;P2;durP2;ratioP2
16468;SDS011;8345;50.902;6.956;2022-07-11T00:00:01;3.17;;;2.77;;
16468;SDS011;8345;50.902;6.956;2022-07-11T00:02:28;4.17;;;3.13;;
16468;SDS011;8345;50.902;6.956;2022-07-11T00:04:55;5.27;;;2.90;;
16468;SDS011;8345;50.902;6.956;2022-07-11T00:07:22;4.00;;;3.10;;
16468;SDS011;8345;50.902;6.956;2022-07-11T00:09:51;4.20;;;2.83;;
16468;SDS011;8345;50.902;6.956;2022-07-11T00:12:18;3.90;;;2.80;;
16468;SDS011;8345;50.902;6.956;2022-07-11T00:14:46;4.13;;;3.20;;
16468;SDS011;8345;50.902;6.956;2022-07-11T00:17:13;3.67;;;3.17;;
16468;SDS011;8345;50.902;6.956;2022-07-11T00:19:41;3.60;;;3.00;;
16468;SDS011;8345;50.902;6.956;2022-07-11T00:22:08;3.87;;;3.00;;
16468;SDS011;8345;50.902;6.956;2022-07-11T00:24:35;5.63;;;3.17;;
16468;SDS011;8345;50.902;6.956;2022-07-11T00:27:04;3.93;;;2.80;;
16468;SDS011;8345;50.902;6.956;2022-07-11T00:29:32;3.33;;;3.00;;
16468;SDS011;8345;50.902;6.956;2022-07-11T00:31:59;3.60;;;2.87;;
16468;SDS011;8345;50.902;6.956;2022-07-11T00:34:26;5.17;;;3.20;;
16468;SDS011;8345;50.902;6.956;2022-07-11T00:36:53;5.10;;;3.07;;
16468;SDS011;8345;50.902;6.956;2022-07-11T00:39:20;4.73;;;3.30;;
16468;SDS011;8345;50.902;6.956;2022-07-11T00:41:48;6.93;;;3.40;;
16468;SDS011;8345;50.902;6.956;2022-07-11T00:44:16;6.13;;;3.10;;
16468;SDS011;8345;50.902;6.956;2022-07-11T00:46:43;5.00;;;3.23;;
16468;SDS011;8345;50.902;6.956;2022-07-11T00:49:10;4.43;;;3.13;;
16468;SDS011;8345;50.902;6.956;2022-07-11T00:51:38;4.10;;;3.00;;
16468;SDS011;8345;50.902;6.956;2022-07-11T00:54:06;4.90;;;2.93;;
16468;SDS011;8345;50.902;6.956;2022-07-11T00:56:34;3.47;;;2.53;;
16468;SDS011;8345;50.902;6.956;2022-07-11T00:59:02;4.57;;;2.50;;
16468;SDS011;8345;50.902;6.956;2022-07-11T01:01:30;5.03;;;3.00;;
16468;SDS011;8345;50.902;6.956;2022-07-11T01:03:59;3.87;;;3.03;;
16468;SDS011;8345;50.902;6.956;2022-07-11T01:06:26;5.40;;;3.20;;
16468;SDS011;8345;50.902;6.956;2022-07-11T01:08:53;4.37;;;3.07;;
16468;SDS011;8345;50.902;6.956;2022-07-11T01:11:21;5.13;;;3.17;;
16468;SDS011;8345;50.902;6.956;2022-07-11T01:13:48;3.50;;;2.87;;
16468;SDS011;8345;50.902;6.956;2022-07-11T01:16:16;3.33;;;3.03;;
16468;SDS011;8345;50.902;6.956;2022-07-11T01:18:46;4.90;;;3.20;;
16468;SDS011;8345;50.902;6.956;2022-07-11T01:21:17;3.37;;;2.90;;
16468;SDS011;8345;50.902;6.956;2022-07-11T01:23:47;4.63;;;2.83;;
16468;SDS011;8345;50.902;6.956;2022-07-11T01:26:15;4.47;;;3.10;;
16468;SDS011;8345;50.902;6.956;2022-07-11T01:28:42;3.77;;;3.00;;
16468;SDS011;8345;50.902;6.956;2022-07-11T01:31:10;3.57;;;2.90;;
16468;SDS011;8345;50.902;6.956;2022-07-11T01:33:37;3.63;;;3.00;;
16468;SDS011;8345;50.902;6.956;2022-07-11T01:36:05;5.10;;;3.30;;
16468;SDS011;8345;50.902;6.956;2022-07-11T01:38:32;4.07;;;3.67;;
16468;SDS011;8345;50.902;6.956;2022-07-11T01:41:01;7.13;;;3.20;;
16468;SDS011;8345;50.902;6.956;2022-07-11T01:43:28;4.60;;;3.30;;
16468;SDS011;8345;50.902;6.956;2022-07-11T01:45:55;3.73;;;3.40;;
16468;SDS011;8345;50.902;6.956;2022-07-11T01:48:23;3.23;;;3.00;;
16468;SDS011;8345;50.902;6.956;2022-07-11T01:50:50;4.67;;;3.13;;
16468;SDS011;8345;50.902;6.956;2022-07-11T01:53:17;3.40;;;2.87;;
16468;SDS011;8345;50.902;6.956;2022-07-11T01:55:44;4.63;;;3.20;;
16468;SDS011;8345;50.902;6.956;2022-07-11T01:58:13;3.77;;;3.20;;
16468;SDS011;8345;50.902;6.956;2022-07-11T02:00:40;6.20;;;3.97;;
16468;SDS011;8345;50.902;6.956;2022-07-11T02:03:07;4.53;;;3.23;;
16468;SDS011;8345;50.902;6.956;2022-07-11T02:05:35;4.10;;;3.40;;
16468;SDS011;8345;50.902;6.956;2022-07-11T02:08:04;3.47;;;3.17;;
16468;SDS011;8345;50.902;6.956;2022-07-11T02:10:38;5.23;;;3.50;;
16468;SDS011;8345;50.902;6.956;2022-07-11T02:13:06;4.70;;;3.50;;
16468;SDS011;8345;50.902;6.956;2022-07-11T02:15:36;3.90;;;3.30;;
16468;SDS011;8345;50.902;6.956;2022-07-11T02:18:04;3.60;;;3.30;;
16468;SDS011;8345;50.902;6.956;2022-07-11T02:20:31;4.63;;;3.90;;
16468;SDS011;8345;50.902;6.956;2022-07-11T02:22:58;5.00;;;3.73;;
16468;SDS011;8345;50.902;6.956;2022-07-11T02:25:26;5.50;;;3.70;;
16468;SDS011;8345;50.902;6.956;2022-07-11T02:27:53;3.87;;;3.13;;
16468;SDS011;8345;50.902;6.956;2022-07-11T02:30:20;6.80;;;4.37;;
16468;SDS011;8345;50.902;6.956;2022-07-11T02:32:49;4.90;;;4.50;;
16468;SDS011;8345;50.902;6.956;2022-07-11T02:35:17;4.70;;;4.30;;
16468;SDS011;8345;50.902;6.956;2022-07-11T02:37:44;4.47;;;4.00;;
16468;SDS011;8345;50.902;6.956;2022-07-11T02:40:11;6.83;;;4.43;;
16468;SDS011;8345;50.902;6.956;2022-07-11T02:42:38;5.43;;;4.07;;
16468;SDS011;8345;50.902;6.956;2022-07-11T02:45:06;4.97;;;4.10;;
16468;SDS011;8345;50.902;6.956;2022-07-11T02:47:34;4.83;;;4.20;;
16468;SDS011;8345;50.902;6.956;2022-07-11T02:50:05;4.33;;;3.93;;
16468;SDS011;8345;50.902;6.956;2022-07-11T02:52:32;6.43;;;4.53;;
16468;SDS011;8345;50.902;6.956;2022-07-11T02:55:00;7.33;;;4.60;;
16468;SDS011;8345;50.902;6.956;2022-07-11T02:57:27;5.10;;;4.43;;
16468;SDS011;8345;50.902;6.956;2022-07-11T02:59:54;6.20;;;4.60;;
16468;SDS011;8345;50.902;6.956;2022-07-11T03:02:21;6.40;;;4.57;;
16468;SDS011;8345;50.902;6.956;2022-07-11T03:04:49;5.63;;;4.57;;
16468;SDS011;8345;50.902;6.956;2022-07-11T03:07:17;6.47;;;4.63;;
16468;SDS011;8345;50.902;6.956;2022-07-11T03:09:45;5.10;;;4.60;;
16468;SDS011;8345;50.902;6.956;2022-07-11T03:12:12;6.67;;;4.97;;
16468;SDS011;8345;50.902;6.956;2022-07-11T03:14:39;7.07;;;4.57;;
16468;SDS011;8345;50.902;6.956;2022-07-11T03:17:06;4.80;;;4.30;;
16468;SDS011;8345;50.902;6.956;2022-07-11T03:19:33;6.83;;;4.90;;
16468;SDS011;8345;50.902;6.956;2022-07-11T03:22:01;6.13;;;5.00;;
16468;SDS011;8345;50.902;6.956;2022-07-11T03:24:30;6.20;;;4.40;;
16468;SDS011;8345;50.902;6.956;2022-07-11T03:26:57;7.73;;;4.80;;
16468;SDS011;8345;50.902;6.956;2022-07-11T03:29:24;6.13;;;4.43;;
16468;SDS011;8345;50.902;6.956;2022-07-11T03:31:52;5.90;;;4.60;;
16468;SDS011;8345;50.902;6.956;2022-07-11T03:34:19;6.13;;;4.50;;
16468;SDS011;8345;50.902;6.956;2022-07-11T03:36:46;6.10;;;4.17;;
16468;SDS011;8345;50.902;6.956;2022-07-11T03:39:13;5.03;;;4.27;;
16468;SDS011;8345;50.902;6.956;2022-07-11T03:41:42;5.30;;;4.40;;
16468;SDS011;8345;50.902;6.956;2022-07-11T03:44:09;6.93;;;4.30;;
16468;SDS011;8345;50.902;6.956;2022-07-11T03:46:37;5.77;;;4.43;;
16468;SDS011;8345;50.902;6.956;2022-07-11T03:49:04;5.03;;;3.93;;
16468;SDS011;8345;50.902;6.956;2022-07-11T03:51:31;4.77;;;4.27;;
16468;SDS011;8345;50.902;6.956;2022-07-11T03:53:58;6.80;;;4.40;;
16468;SDS011;8345;50.902;6.956;2022-07-11T03:56:25;6.37;;;4.20;;
16468;SDS011;8345;50.902;6.956;2022-07-11T03:58:54;4.80;;;4.40;;
16468;SDS011;8345;50.902;6.956;2022-07-11T04:01:21;7.30;;;5.00;;
16468;SDS011;8345;50.902;6.956;2022-07-11T04:03:48;10.33;;;4.87;;
16468;SDS011;8345;50.902;6.956;2022-07-11T04:06:16;5.30;;;4.40;;
16468;SDS011;8345;50.902;6.956;2022-07-11T04:08:43;5.77;;;4.73;;
16468;SDS011;8345;50.902;6.956;2022-07-11T04:11:10;7.57;;;4.97;;
16468;SDS011;8345;50.902;6.956;2022-07-11T04:13:37;7.53;;;4.50;;
16468;SDS011;8345;50.902;6.956;2022-07-11T04:16:06;6.27;;;4.70;;
16468;SDS011;8345;50.902;6.956;2022-07-11T04:18:33;5.67;;;4.83;;
16468;SDS011;8345;50.902;6.956;2022-07-11T04:21:01;6.97;;;4.80;;
16468;SDS011;8345;50.902;6.956;2022-07-11T04:23:28;6.37;;;4.50;;
16468;SDS011;8345;50.902;6.956;2022-07-11T04:25:55;5.63;;;4.63;;
16468;SDS011;8345;50.902;6.956;2022-07-11T04:28:22;6.67;;;5.00;;
16468;SDS011;8345;50.902;6.956;2022-07-11T04:30:49;6.17;;;4.90;;
16468;SDS011;8345;50.902;6.956;2022-07-11T04:33:18;6.27;;;4.80;;
16468;SDS011;8345;50.902;6.956;2022-07-11T04:35:45;5.10;;;4.60;;
16468;SDS011;8345;50.902;6.956;2022-07-11T04:38:12;6.33;;;5.40;;
16468;SDS011;8345;50.902;6.956;2022-07-11T04:40:39;6.23;;;4.83;;
16468;SDS011;8345;50.902;6.956;2022-07-11T04:43:07;8.47;;;5.27;;
16468;SDS011;8345;50.902;6.956;2022-07-11T04:45:34;6.03;;;5.10;;
16468;SDS011;8345;50.902;6.956;2022-07-11T04:48:01;6.00;;;4.83;;
16468;SDS011;8345;50.902;6.956;2022-07-11T04:50:30;6.67;;;5.00;;
16468;SDS011;8345;50.902;6.956;2022-07-11T04:52:57;5.37;;;4.87;;
16468;SDS011;8345;50.902;6.956;2022-07-11T04:55:24;5.70;;;5.20;;
16468;SDS011;8345;50.902;6.956;2022-07-11T04:57:51;7.73;;;5.67;;
16468;SDS011;8345;50.902;6.956;2022-07-11T05:00:18;6.27;;;4.93;;
16468;SDS011;8345;50.902;6.956;2022-07-11T05:02:46;6.57;;;5.13;;
16468;SDS011;8345;50.902;6.956;2022-07-11T05:05:13;7.43;;;5.10;;
16468;SDS011;8345;50.902;6.956;2022-07-11T05:07:41;6.60;;;5.03;;
16468;SDS011;8345;50.902;6.956;2022-07-11T05:10:09;5.20;;;4.70;;
16468;SDS011;8345;50.902;6.956;2022-07-11T05:12:36;5.30;;;4.80;;
16468;SDS011;8345;50.902;6.956;2022-07-11T05:15:04;5.07;;;4.60;;
16468;SDS011;8345;50.902;6.956;2022-07-11T05:17:31;7.80;;;4.97;;
16468;SDS011;8345;50.902;6.956;2022-07-11T05:19:58;8.07;;;5.33;;
16468;SDS011;8345;50.902;6.956;2022-07-11T05:22:25;6.57;;;5.40;;
16468;SDS011;8345;50.902;6.956;2022-07-11T05:24:54;5.00;;;4.50;;
16468;SDS011;8345;50.902;6.956;2022-07-11T05:27:21;6.47;;;5.23;;
16468;SDS011;8345;50.902;6.956;2022-07-11T05:29:48;7.00;;;5.50;;
16468;SDS011;8345;50.902;6.956;2022-07-11T05:32:16;8.17;;;5.20;;
16468;SDS011;8345;50.902;6.956;2022-07-11T05:34:43;6.67;;;5.00;;
16468;SDS011;8345;50.902;6.956;2022-07-11T05:37:10;8.20;;;6.00;;
16468;SDS011;8345;50.902;6.956;2022-07-11T05:39:37;6.93;;;5.53;;
16468;SDS011;8345;50.902;6.956;2022-07-11T05:42:06;8.20;;;5.77;;
16468;SDS011;8345;50.902;6.956;2022-07-11T05:44:33;7.87;;;5.63;;
16468;SDS011;8345;50.902;6.956;2022-07-11T05:47:01;8.23;;;6.40;;
16468;SDS011;8345;50.902;6.956;2022-07-11T05:49:30;5.80;;;5.30;;
16468;SDS011;8345;50.902;6.956;2022-07-11T05:51:57;8.63;;;5.73;;
16468;SDS011;8345;50.902;6.956;2022-07-11T05:54:24;8.53;;;5.43;;
16468;SDS011;8345;50.902;6.956;2022-07-11T05:56:51;6.50;;;5.03;;
16468;SDS011;8345;50.902;6.956;2022-07-11T05:59:21;7.57;;;5.67;;
16468;SDS011;8345;50.902;6.956;2022-07-11T06:01:48;8.73;;;5.63;;
16468;SDS011;8345;50.902;6.956;2022-07-11T06:04:15;9.30;;;5.95;;
16468;SDS011;8345;50.902;6.956;2022-07-11T06:06:42;7.33;;;5.40;;
16468;SDS011;8345;50.902;6.956;2022-07-11T06:09:10;6.77;;;5.57;;
16468;SDS011;8345;50.902;6.956;2022-07-11T06:11:36;6.77;;;6.00;;
16468;SDS011;8345;50.902;6.956;2022-07-11T06:14:03;8.77;;;5.43;;
16468;SDS011;8345;50.902;6.956;2022-07-11T06:16:33;8.70;;;6.20;;
16468;SDS011;8345;50.902;6.956;2022-07-11T06:19:01;7.60;;;6.30;;
16468;SDS011;8345;50.902;6.956;2022-07-11T06:21:28;9.77;;;5.90;;
16468;SDS011;8345;50.902;6.956;2022-07-11T06:23:55;8.03;;;6.37;;
16468;SDS011;8345;50.902;6.956;2022-07-11T06:26:22;7.80;;;6.27;;
16468;SDS011;8345;50.902;6.956;2022-07-11T06:28:50;10.67;;;6.43;;
16468;SDS011;8345;50.902;6.956;2022-07-11T06:31:17;8.10;;;6.17;;
16468;SDS011;8345;50.902;6.956;2022-07-11T06:33:46;9.73;;;6.03;;
16468;SDS011;8345;50.902;6.956;2022-07-11T06:36:19;8.07;;;6.10;;
16468;SDS011;8345;50.902;6.956;2022-07-11T06:38:48;6.50;;;5.80;;
16468;SDS011;8345;50.902;6.956;2022-07-11T06:41:15;6.93;;;6.33;;
16468;SDS011;8345;50.902;6.956;2022-07-11T06:43:42;9.03;;;6.10;;
16468;SDS011;8345;50.902;6.956;2022-07-11T06:46:12;8.43;;;5.73;;
16468;SDS011;8345;50.902;6.956;2022-07-11T06:48:40;8.10;;;6.13;;
16468;SDS011;8345;50.902;6.956;2022-07-11T06:51:08;6.83;;;6.13;;
16468;SDS011;8345;50.902;6.956;2022-07-11T06:53:35;7.23;;;6.30;;
16468;SDS011;8345;50.902;6.956;2022-07-11T06:56:03;9.83;;;6.57;;
16468;SDS011;8345;50.902;6.956;2022-07-11T06:58:30;8.93;;;7.80;;
16468;SDS011;8345;50.902;6.956;2022-07-11T07:00:58;10.17;;;7.53;;
16468;SDS011;8345;50.902;6.956;2022-07-11T07:03:26;9.13;;;8.23;;
16468;SDS011;8345;50.902;6.956;2022-07-11T07:05:54;11.17;;;9.17;;
16468;SDS011;8345;50.902;6.956;2022-07-11T07:08:26;9.53;;;8.57;;
16468;SDS011;8345;50.902;6.956;2022-07-11T07:10:54;10.27;;;9.17;;
16468;SDS011;8345;50.902;6.956;2022-07-11T07:13:21;10.80;;;9.90;;
16468;SDS011;8345;50.902;6.956;2022-07-11T07:15:50;10.80;;;9.30;;
16468;SDS011;8345;50.902;6.956;2022-07-11T07:18:18;11.17;;;9.93;;
16468;SDS011;8345;50.902;6.956;2022-07-11T07:20:45;10.20;;;9.13;;
16468;SDS011;8345;50.902;6.956;2022-07-11T07:23:14;11.53;;;10.43;;
16468;SDS011;8345;50.902;6.956;2022-07-11T07:25:44;9.90;;;9.10;;
16468;SDS011;8345;50.902;6.956;2022-07-11T07:28:11;10.80;;;9.70;;
16468;SDS011;8345;50.902;6.956;2022-07-11T07:30:38;10.20;;;9.30;;
16468;SDS011;8345;50.902;6.956;2022-07-11T07:33:06;10.50;;;9.57;;
16468;SDS011;8345;50.902;6.956;2022-07-11T07:35:33;10.47;;;9.47;;
16468;SDS011;8345;50.902;6.956;2022-07-11T07:38:00;9.10;;;8.37;;
16468;SDS011;8345;50.902;6.956;2022-07-11T07:40:27;10.33;;;9.50;;
16468;SDS011;8345;50.902;6.956;2022-07-11T07:42:56;12.40;;;9.77;;
16468;SDS011;8345;50.902;6.956;2022-07-11T07:45:23;9.07;;;8.27;;
16468;SDS011;8345;50.902;6.956;2022-07-11T07:47:50;9.30;;;7.83;;
16468;SDS011;8345;50.902;6.956;2022-07-11T07:50:18;8.97;;;8.20;;
16468;SDS011;8345;50.902;6.956;2022-07-11T07:52:47;9.30;;;8.40;;
16468;SDS011;8345;50.902;6.956;2022-07-11T07:55:14;8.70;;;7.80;;
16468;SDS011;8345;50.902;6.956;2022-07-11T07:57:42;9.13;;;8.07;;
16468;SDS011;8345;50.902;6.956;2022-07-11T08:00:10;8.57;;;7.47;;
16468;SDS011;8345;50.902;6.956;2022-07-11T08:02:55;10.30;;;9.43;;
16468;SDS011;8345;50.902;6.956;2022-07-11T08:05:22;10.20;;;9.20;;
16468;SDS011;8345;50.902;6.956;2022-07-11T08:07:50;10.77;;;9.30;;
16468;SDS011;8345;50.902;6.956;2022-07-11T08:10:17;9.83;;;8.93;;
16468;SDS011;8345;50.902;6.956;2022-07-11T08:12:44;9.23;;;8.50;;
16468;SDS011;8345;50.902;6.956;2022-07-11T08:15:13;10.40;;;9.50;;
16468;SDS011;8345;50.902;6.956;2022-07-11T08:17:40;11.73;;;10.70;;
16468;SDS011;8345;50.902;6.956;2022-07-11T08:20:08;12.40;;;11.40;;
16468;SDS011;8345;50.902;6.956;2022-07-11T08:22:35;12.20;;;11.00;;
16468;SDS011;8345;50.902;6.956;2022-07-11T08:25:03;12.37;;;11.30;;
16468;SDS011;8345;50.902;6.956;2022-07-11T08:27:30;11.23;;;10.23;;
16468;SDS011;8345;50.902;6.956;2022-07-11T08:29:58;11.63;;;10.53;;
16468;SDS011;8345;50.902;6.956;2022-07-11T08:32:29;12.83;;;11.47;;
16468;SDS011;8345;50.902;6.956;2022-07-11T08:34:56;13.90;;;11.33;;
16468;SDS011;8345;50.902;6.956;2022-07-11T08:37:23;12.83;;;11.50;;
16468;SDS011;8345;50.902;6.956;2022-07-11T08:39:51;11.60;;;10.60;;
16468;SDS011;8345;50.902;6.956;2022-07-11T08:42:18;12.17;;;11.17;;
16468;SDS011;8345;50.902;6.956;2022-07-11T08:44:46;13.17;;;11.63;;
16468;SDS011;8345;50.902;6.956;2022-07-11T08:47:13;13.03;;;11.73;;
16468;SDS011;8345;50.902;6.956;2022-07-11T08:49:42;14.87;;;13.57;;
16468;SDS011;8345;50.902;6.956;2022-07-11T08:52:10;15.07;;;13.77;;
16468;SDS011;8345;50.902;6.956;2022-07-11T08:54:38;16.27;;;14.87;;
16468;SDS011;8345;50.902;6.956;2022-07-11T08:57:05;13.77;;;12.50;;
16468;SDS011;8345;50.902;6.956;2022-07-11T08:59:33;15.57;;;14.20;;
16468;SDS011;8345;50.902;6.956;2022-07-11T09:02:01;18.03;;;16.43;;
16468;SDS011;8345;50.902;6.956;2022-07-11T09:04:29;15.80;;;14.60;;
16468;SDS011;8345;50.902;6.956;2022-07-11T09:06:58;18.03;;;16.43;;
16468;SDS011;8345;50.902;6.956;2022-07-11T09:09:26;19.37;;;17.67;;
16468;SDS011;8345;50.902;6.956;2022-07-11T09:11:54;17.63;;;16.03;;
16468;SDS011;8345;50.902;6.956;2022-07-11T09:14:22;17.63;;;16.17;;
16468;SDS011;8345;50.902;6.956;2022-07-11T09:16:53;16.90;;;15.40;;
16468;SDS011;8345;50.902;6.956;2022-07-11T09:19:21;16.60;;;15.30;;
16468;SDS011;8345;50.902;6.956;2022-07-11T09:21:59;16.03;;;14.73;;
16468;SDS011;8345;50.902;6.956;2022-07-11T09:24:54;16.70;;;15.20;;
16468;SDS011;8345;50.902;6.956;2022-07-11T09:27:40;16.73;;;15.43;;
16468;SDS011;8345;50.902;6.956;2022-07-11T09:30:17;16.93;;;15.63;;
16468;SDS011;8345;50.902;6.956;2022-07-11T09:32:55;15.40;;;14.10;;
16468;SDS011;8345;50.902;6.956;2022-07-11T09:35:22;13.47;;;12.47;;
16468;SDS011;8345;50.902;6.956;2022-07-11T09:37:52;13.30;;;12.20;;
16468;SDS011;8345;50.902;6.956;2022-07-11T09:40:19;16.40;;;15.00;;
16468;SDS011;8345;50.902;6.956;2022-07-11T09:42:48;14.30;;;13.20;;
16468;SDS011;8345;50.902;6.956;2022-07-11T09:45:16;9.20;;;8.50;;
16468;SDS011;8345;50.902;6.956;2022-07-11T09:47:44;8.17;;;7.57;;
16468;SDS011;8345;50.902;6.956;2022-07-11T09:50:11;11.57;;;10.73;;
16468;SDS011;8345;50.902;6.956;2022-07-11T09:52:41;11.90;;;11.00;;
16468;SDS011;8345;50.902;6.956;2022-07-11T09:55:10;10.93;;;10.03;;
16468;SDS011;8345;50.902;6.956;2022-07-11T09:57:38;10.13;;;9.13;;
16468;SDS011;8345;50.902;6.956;2022-07-11T10:00:08;10.07;;;9.10;;
16468;SDS011;8345;50.902;6.956;2022-07-11T10:02:37;11.73;;;10.73;;
16468;SDS011;8345;50.902;6.956;2022-07-11T10:05:04;11.00;;;10.10;;
16468;SDS011;8345;50.902;6.956;2022-07-11T10:07:32;11.23;;;10.43;;
16468;SDS011;8345;50.902;6.956;2022-07-11T10:10:00;11.00;;;10.10;;
16468;SDS011;8345;50.902;6.956;2022-07-11T10:12:29;13.90;;;12.80;;
16468;SDS011;8345;50.902;6.956;2022-07-11T10:14:57;11.70;;;10.77;;
16468;SDS011;8345;50.902;6.956;2022-07-11T10:17:27;12.17;;;11.17;;
16468;SDS011;8345;50.902;6.956;2022-07-11T10:19:57;14.67;;;13.30;;
16468;SDS011;8345;50.902;6.956;2022-07-11T10:22:29;14.13;;;12.93;;
16468;SDS011;8345;50.902;6.956;2022-07-11T10:24:59;15.13;;;13.93;;
16468;SDS011;8345;50.902;6.956;2022-07-11T10:27:39;15.00;;;13.80;;
16468;SDS011;8345;50.902;6.956;2022-07-11T10:30:11;16.90;;;15.50;;
16468;SDS011;8345;50.902;6.956;2022-07-11T10:35:23;14.57;;;13.37;;
16468;SDS011;8345;50.902;6.956;2022-07-11T10:37:53;15.83;;;14.53;;
16468;SDS011;8345;50.902;6.956;2022-07-11T10:43:04;15.67;;;14.37;;
16468;SDS011;8345;50.902;6.956;2022-07-11T10:45:34;16.50;;;15.10;;
16468;SDS011;8345;50.902;6.956;2022-07-11T10:48:15;14.50;;;13.30;;
16468;SDS011;8345;50.902;6.956;2022-07-11T10:50:42;14.90;;;13.70;;
16468;SDS011;8345;50.902;6.956;2022-07-11T10:53:11;15.13;;;13.83;;
16468;SDS011;8345;50.902;6.956;2022-07-11T10:55:39;13.77;;;12.67;;
16468;SDS011;8345;50.902;6.956;2022-07-11T10:58:13;14.50;;;13.40;;
16468;SDS011;8345;50.902;6.956;2022-07-11T11:00:46;15.03;;;13.73;;
16468;SDS011;8345;50.902;6.956;2022-07-11T11:03:15;16.30;;;14.90;;
16468;SDS011;8345;50.902;6.956;2022-07-11T11:05:44;16.90;;;15.50;;
16468;SDS011;8345;50.902;6.956;2022-07-11T11:11:00;19.03;;;17.43;;
16468;SDS011;8345;50.902;6.956;2022-07-11T11:13:29;18.80;;;17.27;;
16468;SDS011;8345;50.902;6.956;2022-07-11T11:15:57;17.80;;;16.30;;
16468;SDS011;8345;50.902;6.956;2022-07-11T11:18:30;15.83;;;14.53;;
16468;SDS011;8345;50.902;6.956;2022-07-11T11:21:12;16.47;;;15.27;;
16468;SDS011;8345;50.902;6.956;2022-07-11T11:23:40;16.87;;;15.57;;
16468;SDS011;8345;50.902;6.956;2022-07-11T11:26:08;17.57;;;16.20;;
16468;SDS011;8345;50.902;6.956;2022-07-11T11:28:37;18.90;;;17.40;;
16468;SDS011;8345;50.902;6.956;2022-07-11T11:31:05;21.43;;;19.73;;
16468;SDS011;8345;50.902;6.956;2022-07-11T11:33:34;21.80;;;20.07;;
16468;SDS011;8345;50.902;6.956;2022-07-11T11:36:02;24.40;;;22.60;;
16468;SDS011;8345;50.902;6.956;2022-07-11T11:38:30;23.47;;;21.67;;
16468;SDS011;8345;50.902;6.956;2022-07-11T11:40:59;25.43;;;23.37;;
16468;SDS011;8345;50.902;6.956;2022-07-11T11:43:27;23.30;;;21.50;;
16468;SDS011;8345;50.902;6.956;2022-07-11T11:45:55;23.40;;;21.53;;
16468;SDS011;8345;50.902;6.956;2022-07-11T11:48:26;23.57;;;21.77;;
16468;SDS011;8345;50.902;6.956;2022-07-11T11:50:59;21.03;;;19.43;;
16468;SDS011;8345;50.902;6.956;2022-07-11T11:53:26;21.60;;;20.00;;
16468;SDS011;8345;50.902;6.956;2022-07-11T11:55:54;20.80;;;19.20;;
16468;SDS011;8345;50.902;6.956;2022-07-11T11:58:21;19.70;;;18.10;;
16468;SDS011;8345;50.902;6.956;2022-07-11T12:00:53;20.27;;;18.77;;
16468;SDS011;8345;50.902;6.956;2022-07-11T12:03:22;17.77;;;16.47;;
16468;SDS011;8345;50.902;6.956;2022-07-11T12:05:53;18.57;;;17.03;;
16468;SDS011;8345;50.902;6.956;2022-07-11T12:08:24;18.93;;;17.43;;
16468;SDS011;8345;50.902;6.956;2022-07-11T12:10:52;18.23;;;16.73;;
16468;SDS011;8345;50.902;6.956;2022-07-11T12:13:20;17.77;;;16.37;;
16468;SDS011;8345;50.902;6.956;2022-07-11T12:15:47;18.00;;;16.63;;
16468;SDS011;8345;50.902;6.956;2022-07-11T12:18:37;17.70;;;16.20;;
16468;SDS011;8345;50.902;6.956;2022-07-11T12:21:11;18.20;;;16.40;;
16468;SDS011;8345;50.902;6.956;2022-07-11T12:23:38;17.43;;;16.00;;
16468;SDS011;8345;50.902;6.956;2022-07-11T12:26:06;17.37;;;15.97;;
16468;SDS011;8345;50.902;6.956;2022-07-11T12:28:33;17.47;;;16.17;;
16468;SDS011;8345;50.902;6.956;2022-07-11T12:31:01;17.80;;;16.40;;
16468;SDS011;8345;50.902;6.956;2022-07-11T12:33:28;17.20;;;15.90;;
16468;SDS011;8345;50.902;6.956;2022-07-11T12:35:58;16.77;;;15.57;;
16468;SDS011;8345;50.902;6.956;2022-07-11T12:38:25;17.50;;;16.10;;
16468;SDS011;8345;50.902;6.956;2022-07-11T12:40:59;16.70;;;15.43;;
16468;SDS011;8345;50.902;6.956;2022-07-11T12:43:42;17.50;;;16.10;;
16468;SDS011;8345;50.902;6.956;2022-07-11T12:46:28;17.37;;;15.80;;
16468;SDS011;8345;50.902;6.956;2022-07-11T12:48:55;17.20;;;15.80;;
16468;SDS011;8345;50.902;6.956;2022-07-11T12:51:29;16.77;;;15.47;;
16468;SDS011;8345;50.902;6.956;2022-07-11T12:54:00;16.63;;;15.23;;
16468;SDS011;8345;50.902;6.956;2022-07-11T12:56:27;16.57;;;15.10;;
16468;SDS011;8345;50.902;6.956;2022-07-11T12:58:54;16.37;;;15.10;;
16468;SDS011;8345;50.902;6.956;2022-07-11T13:01:22;15.37;;;14.23;;
16468;SDS011;8345;50.902;6.956;2022-07-11T13:03:49;15.70;;;14.50;;
16468;SDS011;8345;50.902;6.956;2022-07-11T13:06:17;15.37;;;14.07;;
16468;SDS011;8345;50.902;6.956;2022-07-11T13:09:06;15.93;;;14.70;;
16468;SDS011;8345;50.902;6.956;2022-07-11T13:11:33;15.60;;;14.30;;
16468;SDS011;8345;50.902;6.956;2022-07-11T13:14:00;15.27;;;14.13;;
16468;SDS011;8345;50.902;6.956;2022-07-11T13:16:28;14.87;;;13.57;;
16468;SDS011;8345;50.902;6.956;2022-07-11T13:18:55;14.73;;;13.43;;
16468;SDS011;8345;50.902;6.956;2022-07-11T13:21:23;15.17;;;13.97;;
16468;SDS011;8345;50.902;6.956;2022-07-11T13:23:52;16.07;;;14.77;;
16468;SDS011;8345;50.902;6.956;2022-07-11T13:26:20;14.57;;;13.27;;
16468;SDS011;8345;50.902;6.956;2022-07-11T13:28:48;16.13;;;14.83;;
16468;SDS011;8345;50.902;6.956;2022-07-11T13:31:15;16.67;;;15.30;;
16468;SDS011;8345;50.902;6.956;2022-07-11T13:33:42;16.73;;;15.43;;
16468;SDS011;8345;50.902;6.956;2022-07-11T13:36:09;16.33;;;14.90;;
16468;SDS011;8345;50.902;6.956;2022-07-11T13:38:37;16.43;;;14.93;;
16468;SDS011;8345;50.902;6.956;2022-07-11T13:41:04;15.80;;;14.43;;
16468;SDS011;8345;50.902;6.956;2022-07-11T13:43:33;17.17;;;15.77;;
16468;SDS011;8345;50.902;6.956;2022-07-11T13:46:02;15.10;;;13.80;;
16468;SDS011;8345;50.902;6.956;2022-07-11T13:48:30;15.57;;;14.27;;
16468;SDS011;8345;50.902;6.956;2022-07-11T13:50:57;16.93;;;15.53;;
16468;SDS011;8345;50.902;6.956;2022-07-11T13:53:24;17.47;;;15.77;;
16468;SDS011;8345;50.902;6.956;2022-07-11T13:55:51;17.10;;;15.70;;
16468;SDS011;8345;50.902;6.956;2022-07-11T13:58:19;16.47;;;15.10;;
16468;SDS011;8345;50.902;6.956;2022-07-11T14:00:55;17.33;;;15.73;;
16468;SDS011;8345;50.902;6.956;2022-07-11T14:03:23;17.27;;;15.87;;
16468;SDS011;8345;50.902;6.956;2022-07-11T14:05:50;17.07;;;15.53;;
16468;SDS011;8345;50.902;6.956;2022-07-11T14:08:17;15.27;;;13.93;;
16468;SDS011;8345;50.902;6.956;2022-07-11T14:10:45;15.23;;;14.03;;
16468;SDS011;8345;50.902;6.956;2022-07-11T14:13:12;16.23;;;14.97;;
16468;SDS011;8345;50.902;6.956;2022-07-11T14:15:39;15.83;;;14.63;;
16468;SDS011;8345;50.902;6.956;2022-07-11T14:18:08;16.53;;;15.13;;
16468;SDS011;8345;50.902;6.956;2022-07-11T14:20:36;15.97;;;14.67;;
16468;SDS011;8345;50.902;6.956;2022-07-11T14:23:03;15.90;;;14.50;;
16468;SDS011;8345;50.902;6.956;2022-07-11T14:25:30;15.47;;;14.27;;
16468;SDS011;8345;50.902;6.956;2022-07-11T14:27:58;15.30;;;14.03;;
16468;SDS011;8345;50.902;6.956;2022-07-11T14:30:26;15.83;;;14.53;;
16468;SDS011;8345;50.902;6.956;2022-07-11T14:32:54;15.83;;;14.53;;
16468;SDS011;8345;50.902;6.956;2022-07-11T14:35:22;15.00;;;13.80;;
16468;SDS011;8345;50.902;6.956;2022-07-11T14:37:50;14.17;;;13.07;;
16468;SDS011;8345;50.902;6.956;2022-07-11T14:40:18;15.60;;;14.30;;
16468;SDS011;8345;50.902;6.956;2022-07-11T14:42:46;15.80;;;14.60;;
16468;SDS011;8345;50.902;6.956;2022-07-11T14:45:13;15.03;;;13.93;;
16468;SDS011;8345;50.902;6.956;2022-07-11T14:47:41;14.47;;;13.47;;
16468;SDS011;8345;50.902;6.956;2022-07-11T14:50:09;15.60;;;14.40;;
16468;SDS011;8345;50.902;6.956;2022-07-11T14:52:37;14.63;;;13.53;;
16468;SDS011;8345;50.902;6.956;2022-07-11T14:55:05;14.67;;;13.47;;
16468;SDS011;8345;50.902;6.956;2022-07-11T14:57:33;15.67;;;14.47;;
16468;SDS011;8345;50.902;6.956;2022-07-11T15:00:00;15.07;;;13.97;;
16468;SDS011;8345;50.902;6.956;2022-07-11T15:02:27;14.70;;;13.60;;